Time;durP1;ratioP1;P1;durP2;ratioP2;P2;SDS_P1;SDS_P2;PMS_P1;PMS_P2;Temp;Humidity;BMP_temperature;BMP_pressure;BME280_temperature;BME280_humidity;BME280_pressure;Samples;Min_cycle;Max_cycle;Signal;HPM_P1;HPM_P2
2022/05/10 00:01:22;;;;;;;11.70;10.90;;;13.10;99.90;;;;;;5082880;28;21275;-87
2022/05/10 00:03:50;;;;;;;11.93;11.03;;;13.20;99.90;;;;;;5082968;28;20671;-86
2022/05/10 00:06:17;;;;;;;11.50;10.70;;;13.10;99.90;;;;;;5087195;28;21170;-87
2022/05/10 00:08:45;;;;;;;10.50;9.70;;;13.00;99.90;;;;;;5091348;28;20624;-87
2022/05/10 00:11:12;;;;;;;11.47;10.63;;;13.00;99.90;;;;;;5089315;28;20648;-87
2022/05/10 00:13:40;;;;;;;11.63;10.73;;;13.00;99.90;;;;;;5083474;28;20641;-87
2022/05/10 00:16:08;;;;;;;11.37;10.43;;;12.70;99.90;;;;;;5087875;28;20676;-87
2022/05/10 00:18:37;;;;;;;12.30;11.30;;;12.90;99.90;;;;;;5083232;28;20631;-87
2022/05/10 00:21:04;;;;;;;11.37;10.27;;;13.00;99.90;;;;;;5087096;28;20644;-87
2022/05/10 00:23:32;;;;;;;13.33;12.17;;;12.90;99.90;;;;;;5080211;28;20636;-87
2022/05/10 00:25:59;;;;;;;11.70;10.90;;;12.90;99.90;;;;;;5082364;28;20630;-87
2022/05/10 00:28:25;;;;;;;11.47;10.60;;;12.80;99.90;;;;;;5086252;28;20631;-87
2022/05/10 00:30:52;;;;;;;11.93;11.13;;;12.80;99.90;;;;;;5084463;28;20652;-87
2022/05/10 00:33:22;;;;;;;12.43;11.50;;;12.80;99.90;;;;;;5083819;28;20646;-87
2022/05/10 00:35:50;;;;;;;12.13;11.23;;;12.80;99.90;;;;;;5084543;28;20627;-87
2022/05/10 00:38:17;;;;;;;11.00;10.30;;;12.80;99.90;;;;;;5086722;28;20615;-87
2022/05/10 00:40:44;;;;;;;12.57;11.73;;;12.80;99.90;;;;;;5085154;28;20656;-87
2022/05/10 00:43:24;;;;;;;11.97;11.03;;;12.80;99.90;;;;;;5083015;28;20675;-87
2022/05/10 00:45:59;;;;;;;11.80;10.90;;;12.80;99.90;;;;;;5085577;28;20624;-87
2022/05/10 00:48:33;;;;;;;11.53;10.83;;;12.70;99.90;;;;;;5081144;28;20620;-87
2022/05/10 00:51:07;;;;;;;12.03;11.10;;;12.70;99.90;;;;;;5082107;28;20738;-87
2022/05/10 00:53:47;;;;;;;11.70;11.00;;;12.30;99.90;;;;;;5085342;28;21490;-86
2022/05/10 00:56:20;;;;;;;12.60;11.60;;;12.70;99.90;;;;;;5083857;28;20619;-85
2022/05/10 00:58:54;;;;;;;12.80;11.70;;;12.60;99.90;;;;;;5085248;28;20644;-85
2022/05/10 01:01:26;;;;;;;13.60;12.33;;;12.60;99.90;;;;;;5084907;28;20644;-86
2022/05/10 01:03:56;;;;;;;13.23;12.43;;;12.50;99.90;;;;;;5081928;28;21182;-86
2022/05/10 01:06:27;;;;;;;13.00;11.77;;;12.50;99.90;;;;;;5081154;28;20632;-87
2022/05/10 01:09:02;;;;;;;13.30;12.33;;;12.50;99.90;;;;;;5084619;28;20619;-86
2022/05/10 01:11:34;;;;;;;13.07;12.00;;;12.50;99.90;;;;;;5081526;28;20734;-87
2022/05/10 01:14:08;;;;;;;12.37;11.40;;;12.10;99.90;;;;;;5080986;28;20620;-86
2022/05/10 01:16:36;;;;;;;12.70;11.83;;;12.20;99.90;;;;;;5082316;28;20988;-86
2022/05/10 01:19:03;;;;;;;12.43;11.63;;;12.30;99.90;;;;;;5084883;28;20647;-86
2022/05/10 01:21:46;;;;;;;13.43;12.50;;;12.40;99.90;;;;;;5087341;28;20659;-86
2022/05/10 01:24:33;;;;;;;13.43;12.30;;;12.40;99.90;;;;;;5083809;28;20674;-86
2022/05/10 01:27:25;;;;;;;12.70;11.80;;;12.10;99.90;;;;;;5081963;28;20712;-87
2022/05/10 01:29:58;;;;;;;13.70;12.60;;;12.30;99.90;;;;;;5054183;28;20655;-87
2022/05/10 01:35:24;;;;;;;12.13;11.23;;;11.90;99.90;;;;;;5082347;28;20624;-86
2022/05/10 01:38:00;;;;;;;12.60;11.80;;;12.20;99.90;;;;;;5079802;28;20636;-87
2022/05/10 01:40:33;;;;;;;14.43;13.20;;;12.20;99.90;;;;;;5083401;28;20666;-86
2022/05/10 01:43:06;;;;;;;13.90;13.00;;;11.90;99.90;;;;;;5084022;28;20628;-86
2022/05/10 01:45:39;;;;;;;13.83;12.63;;;12.20;99.90;;;;;;5084006;28;21040;-86
2022/05/10 01:48:08;;;;;;;13.63;12.70;;;12.20;99.90;;;;;;5084023;28;20616;-86
2022/05/10 01:50:40;;;;;;;13.83;12.83;;;12.30;99.90;;;;;;5081969;28;20747;-86
2022/05/10 01:53:10;;;;;;;14.33;13.23;;;11.80;99.90;;;;;;5082424;28;20631;-86
2022/05/10 01:55:39;;;;;;;15.00;14.00;;;11.90;99.90;;;;;;5083797;28;20623;-87
2022/05/10 01:58:10;;;;;;;14.63;13.30;;;12.10;99.90;;;;;;5084419;28;20651;-87
2022/05/10 02:00:42;;;;;;;13.50;12.40;;;11.60;99.90;;;;;;5083279;28;20645;-87
2022/05/10 02:03:16;;;;;;;13.67;12.53;;;11.80;99.90;;;;;;5082303;28;20645;-87
2022/05/10 02:05:51;;;;;;;14.23;13.23;;;11.70;99.90;;;;;;5083312;28;20658;-87
2022/05/10 02:08:28;;;;;;;15.17;13.53;;;11.60;99.90;;;;;;5083303;28;21008;-87
2022/05/10 02:10:59;;;;;;;14.80;13.80;;;12.10;99.90;;;;;;5083060;28;20652;-87
2022/05/10 02:13:30;;;;;;;14.77;13.73;;;11.70;99.90;;;;;;5082368;28;20609;-87
2022/05/10 02:16:02;;;;;;;14.67;13.73;;;11.70;99.90;;;;;;5084442;28;20620;-87
2022/05/10 02:18:41;;;;;;;14.83;13.83;;;11.90;99.90;;;;;;5078596;28;20612;-87
2022/05/10 02:21:15;;;;;;;14.53;13.53;;;11.90;99.90;;;;;;5082958;28;20647;-87
2022/05/10 02:23:50;;;;;;;15.67;14.47;;;11.90;99.90;;;;;;5085547;28;20628;-87
2022/05/10 02:26:23;;;;;;;15.40;12.77;;;11.90;99.90;;;;;;5086746;28;20663;-88
2022/05/10 02:28:54;;;;;;;14.80;13.33;;;11.60;99.90;;;;;;5090369;28;20616;-87
2022/05/10 02:31:25;;;;;;;15.40;14.20;;;11.50;99.90;;;;;;5086082;28;20639;-88
2022/05/10 02:33:53;;;;;;;14.93;13.73;;;11.70;99.90;;;;;;5082863;28;20624;-87
2022/05/10 02:36:20;;;;;;;14.20;13.10;;;11.60;99.90;;;;;;5083450;28;21216;-87
2022/05/10 02:38:47;;;;;;;15.67;14.53;;;11.70;99.90;;;;;;5082460;28;20625;-87
2022/05/10 02:41:17;;;;;;;14.63;13.53;;;11.40;99.90;;;;;;5084497;28;20663;-87
2022/05/10 02:43:50;;;;;;;14.87;13.73;;;11.40;99.90;;;;;;5084030;28;21048;-88
2022/05/10 02:46:17;;;;;;;15.67;14.60;;;11.40;99.90;;;;;;5083261;28;20674;-87
2022/05/10 02:48:47;;;;;;;15.10;14.10;;;11.60;99.90;;;;;;5082533;28;20686;-86
2022/05/10 02:51:14;;;;;;;14.70;13.70;;;11.20;99.90;;;;;;5082965;28;21217;-87
2022/05/10 02:53:41;;;;;;;15.60;14.53;;;11.60;99.90;;;;;;5079389;28;20631;-87
2022/05/10 02:56:10;;;;;;;16.00;14.97;;;11.30;99.90;;;;;;5082378;28;20636;-87
2022/05/10 02:58:43;;;;;;;17.03;15.83;;;11.60;99.90;;;;;;5085515;28;20616;-87
2022/05/10 03:01:17;;;;;;;17.00;15.80;;;11.10;99.90;;;;;;5083385;28;20652;-87
2022/05/10 03:03:46;;;;;;;16.40;15.20;;;11.70;99.90;;;;;;5079661;28;20632;-87
2022/05/10 03:06:17;;;;;;;17.07;15.53;;;11.20;99.90;;;;;;5084470;28;20664;-87
2022/05/10 03:08:44;;;;;;;15.93;14.80;;;11.30;99.90;;;;;;5081178;28;20671;-86
2022/05/10 03:11:11;;;;;;;16.70;15.50;;;11.10;99.90;;;;;;5084053;28;21225;-87
2022/05/10 03:13:38;;;;;;;15.07;14.17;;;11.00;99.90;;;;;;5083595;28;20592;-86
2022/05/10 03:16:05;;;;;;;17.80;16.50;;;11.50;99.90;;;;;;5081549;28;20624;-87
2022/05/10 03:18:32;;;;;;;15.87;14.77;;;11.40;99.90;;;;;;5085301;28;20639;-87
2022/05/10 03:21:01;;;;;;;16.10;15.00;;;11.20;99.90;;;;;;5087463;28;20655;-86
2022/05/10 03:23:29;;;;;;;15.70;14.57;;;11.10;99.90;;;;;;5085072;28;21118;-87
2022/05/10 03:25:56;;;;;;;16.33;15.23;;;11.30;99.90;;;;;;5085538;28;20658;-86
2022/05/10 03:28:23;;;;;;;16.90;15.70;;;11.00;99.90;;;;;;5086244;28;21227;-87
2022/05/10 03:30:50;;;;;;;17.43;16.23;;;11.30;99.90;;;;;;5086101;28;20748;-86
2022/05/10 03:33:17;;;;;;;16.93;15.80;;;11.40;99.90;;;;;;5085406;28;20632;-87
2022/05/10 03:35:44;;;;;;;15.97;14.87;;;11.00;99.90;;;;;;5087337;28;20721;-86
2022/05/10 03:38:13;;;;;;;16.30;15.10;;;11.50;99.90;;;;;;5086174;28;20650;-87
2022/05/10 03:40:40;;;;;;;17.13;16.03;;;11.30;99.90;;;;;;5086169;28;20652;-86
2022/05/10 03:43:09;;;;;;;17.33;15.90;;;10.90;99.90;;;;;;5086451;28;20632;-87
2022/05/10 03:45:36;;;;;;;17.87;16.60;;;11.30;99.90;;;;;;5084166;28;20696;-86
2022/05/10 03:48:04;;;;;;;17.00;15.80;;;10.90;99.90;;;;;;5082130;28;20645;-86
2022/05/10 03:50:31;;;;;;;16.10;14.90;;;11.10;99.90;;;;;;5087600;28;20652;-87
2022/05/10 03:52:58;;;;;;;16.13;15.07;;;10.90;99.90;;;;;;5087988;28;20655;-86
2022/05/10 03:55:28;;;;;;;17.40;16.20;;;10.90;99.90;;;;;;5089037;28;20616;-87
2022/05/10 03:57:56;;;;;;;17.57;16.17;;;11.30;99.90;;;;;;5088954;28;20624;-86
2022/05/10 04:00:25;;;;;;;16.77;15.57;;;11.20;99.90;;;;;;5088424;28;20978;-88
2022/05/10 04:02:54;;;;;;;16.27;15.13;;;11.30;99.90;;;;;;5085934;28;20679;-88
2022/05/10 04:05:21;;;;;;;17.80;16.63;;;11.30;99.90;;;;;;5091725;28;20659;-87
2022/05/10 04:07:49;;;;;;;16.53;15.23;;;11.40;99.90;;;;;;5087022;28;20628;-88
2022/05/10 04:10:16;;;;;;;17.77;16.57;;;11.20;99.90;;;;;;5087518;28;20624;-87
2022/05/10 04:12:45;;;;;;;17.73;16.53;;;11.40;99.90;;;;;;5087045;28;20652;-86
2022/05/10 04:15:15;;;;;;;17.70;16.50;;;11.10;99.90;;;;;;5087114;28;21083;-87
2022/05/10 04:17:43;;;;;;;17.90;16.60;;;11.00;99.90;;;;;;5086297;28;20669;-87
2022/05/10 04:20:12;;;;;;;17.87;16.57;;;11.40;99.90;;;;;;5089613;28;20644;-87
2022/05/10 04:22:39;;;;;;;16.23;15.20;;;11.20;99.90;;;;;;5086025;28;21316;-86
2022/05/10 04:25:07;;;;;;;19.23;17.93;;;10.80;99.90;;;;;;5086740;28;20648;-87
2022/05/10 04:27:35;;;;;;;19.70;18.30;;;11.10;99.90;;;;;;5087605;28;20628;-88
2022/05/10 04:30:04;;;;;;;17.23;16.03;;;11.10;99.90;;;;;;5085398;28;20632;-87
2022/05/10 04:32:31;;;;;;;16.77;15.67;;;11.20;99.90;;;;;;5080359;28;20652;-88
2022/05/10 04:34:59;;;;;;;17.87;16.57;;;10.90;99.90;;;;;;5082436;28;20620;-88
2022/05/10 04:37:26;;;;;;;17.37;16.17;;;11.30;99.90;;;;;;5084966;28;20632;-87
2022/05/10 04:42:37;;;;;;;17.60;16.40;;;11.30;99.90;;;;;;5081793;28;20781;-87
2022/05/10 04:45:07;;;;;;;17.90;16.70;;;11.40;99.90;;;;;;5084472;28;20632;-87
2022/05/10 04:47:34;;;;;;;17.13;16.03;;;11.50;99.90;;;;;;5087674;28;20628;-87
2022/05/10 04:50:01;;;;;;;19.63;18.23;;;11.20;99.90;;;;;;5086988;28;20623;-87
2022/05/10 04:52:31;;;;;;;21.60;20.00;;;11.30;99.90;;;;;;5086154;28;21517;-88
2022/05/10 04:55:00;;;;;;;20.67;19.27;;;11.30;99.90;;;;;;5083481;28;20639;-87
2022/05/10 04:57:27;;;;;;;19.90;18.50;;;11.70;99.90;;;;;;5086532;28;20612;-87
2022/05/10 04:59:58;;;;;;;21.57;19.87;;;11.80;99.90;;;;;;5086860;28;20633;-88
2022/05/10 05:02:26;;;;;;;19.77;18.13;;;11.70;99.90;;;;;;5082809;28;20659;-87
2022/05/10 05:04:53;;;;;;;21.97;20.33;;;11.70;99.90;;;;;;5080571;28;20644;-87
2022/05/10 05:07:20;;;;;;;20.73;19.40;;;12.00;99.90;;;;;;5085009;28;20620;-88
2022/05/10 05:09:49;;;;;;;20.20;18.83;;;12.10;99.90;;;;;;5083913;28;20648;-86
2022/05/10 05:12:16;;;;;;;19.43;17.93;;;11.90;99.90;;;;;;5084016;28;20714;-87
2022/05/10 05:14:43;;;;;;;20.33;18.83;;;12.30;99.90;;;;;;5084543;28;20997;-87
2022/05/10 05:17:10;;;;;;;19.90;18.37;;;12.40;99.90;;;;;;5082516;28;20659;-86
2022/05/10 05:19:38;;;;;;;19.33;17.90;;;12.50;99.90;;;;;;5084179;28;20633;-87
2022/05/10 05:22:05;;;;;;;19.20;17.60;;;12.20;99.90;;;;;;5085368;28;20651;-86
2022/05/10 05:24:32;;;;;;;20.23;18.17;;;12.50;99.90;;;;;;5086622;28;20640;-86
2022/05/10 05:27:00;;;;;;;19.23;17.73;;;12.70;99.90;;;;;;5086522;28;20659;-87
2022/05/10 05:29:27;;;;;;;17.80;16.63;;;12.40;99.90;;;;;;5083185;28;20632;-86
2022/05/10 05:31:55;;;;;;;18.57;17.07;;;12.80;99.90;;;;;;5083349;28;21034;-87
2022/05/10 05:34:21;;;;;;;18.70;17.30;;;12.80;99.90;;;;;;5086439;28;20619;-87
2022/05/10 05:39:31;;;;;;;17.07;15.77;;;12.70;99.90;;;;;;5085873;28;20711;-88
2022/05/10 05:41:58;;;;;;;18.20;16.80;;;13.00;99.90;;;;;;5085215;28;20659;-87
2022/05/10 05:44:26;;;;;;;17.87;16.60;;;13.10;99.90;;;;;;5086127;28;20631;-87
2022/05/10 05:46:53;;;;;;;18.00;16.40;;;13.30;99.90;;;;;;5086265;28;20620;-86
2022/05/10 05:49:20;;;;;;;18.97;17.63;;;13.40;99.90;;;;;;5084168;28;20632;-87
2022/05/10 05:51:48;;;;;;;17.70;16.23;;;13.50;99.90;;;;;;5086833;28;20679;-87
2022/05/10 05:54:15;;;;;;;16.97;15.77;;;13.50;99.90;;;;;;5086651;28;20616;-87
2022/05/10 05:56:43;;;;;;;16.30;15.20;;;13.60;99.90;;;;;;5087358;28;20616;-87
2022/05/10 05:59:10;;;;;;;18.00;16.60;;;13.70;99.90;;;;;;5083068;28;20624;-87
2022/05/10 06:01:36;;;;;;;17.27;15.97;;;13.70;99.90;;;;;;5085721;28;20948;-88
2022/05/10 06:04:03;;;;;;;17.63;16.30;;;13.80;99.90;;;;;;5082045;28;20636;-87
2022/05/10 06:06:30;;;;;;;18.00;16.40;;;13.90;99.90;;;;;;5083480;28;20660;-87
2022/05/10 06:08:59;;;;;;;16.70;15.40;;;13.90;99.90;;;;;;5086452;28;20632;-87
2022/05/10 06:11:26;;;;;;;16.27;15.10;;;13.90;99.90;;;;;;5085248;28;20654;-87
2022/05/10 06:13:53;;;;;;;17.20;15.10;;;14.10;99.90;;;;;;5084714;28;20615;-89
2022/05/10 06:16:21;;;;;;;16.20;14.90;;;14.10;99.90;;;;;;5077141;28;21126;-90
2022/05/10 06:18:48;;;;;;;17.23;15.77;;;14.20;99.90;;;;;;5082209;28;20639;-91
2022/05/10 06:21:15;;;;;;;15.67;14.17;;;14.30;99.90;;;;;;5088632;28;20652;-91
2022/05/10 06:23:42;;;;;;;16.27;14.97;;;14.40;99.90;;;;;;5091387;28;20636;-90
2022/05/10 06:26:13;;;;;;;17.10;15.80;;;14.50;99.90;;;;;;5089101;28;20664;-89
2022/05/10 06:28:40;;;;;;;16.33;14.93;;;14.60;99.90;;;;;;5084513;28;20717;-90
2022/05/10 06:31:08;;;;;;;17.00;15.47;;;14.60;99.90;;;;;;5088423;28;21153;-89
2022/05/10 06:33:36;;;;;;;15.67;14.57;;;14.70;99.90;;;;;;5084896;28;20714;-88
2022/05/10 06:36:04;;;;;;;14.07;12.97;;;14.90;99.90;;;;;;5085330;28;20697;-90
2022/05/10 06:38:34;;;;;;;15.30;14.07;;;14.90;99.90;;;;;;5087910;28;20580;-89
2022/05/10 06:41:04;;;;;;;14.90;13.80;;;15.10;99.90;;;;;;5088940;28;20648;-88
2022/05/10 06:43:35;;;;;;;14.97;13.87;;;15.30;99.90;;;;;;5085073;28;20649;-88
2022/05/10 06:46:04;;;;;;;13.00;12.00;;;15.40;99.90;;;;;;5089819;28;21420;-91
2022/05/10 06:48:31;;;;;;;14.40;13.50;;;15.50;99.90;;;;;;5091473;28;20983;-89
2022/05/10 06:50:58;;;;;;;13.07;11.97;;;15.60;99.90;;;;;;5088585;28;20678;-90
2022/05/10 06:53:25;;;;;;;14.13;13.03;;;15.90;99.90;;;;;;5087059;28;20624;-91
2022/05/10 06:55:53;;;;;;;13.57;12.50;;;16.00;99.90;;;;;;5082831;28;21168;-89
2022/05/10 06:58:20;;;;;;;13.23;12.33;;;16.10;99.90;;;;;;5094145;28;20639;-90
2022/05/10 07:00:52;;;;;;;13.70;12.70;;;16.30;99.90;;;;;;5095643;28;20647;-90
2022/05/10 07:03:28;;;;;;;13.53;12.53;;;16.40;99.90;;;;;;5087649;28;20643;-89
2022/05/10 07:05:56;;;;;;;13.97;12.87;;;16.50;99.90;;;;;;5091198;28;20623;-89
2022/05/10 07:08:23;;;;;;;13.33;12.23;;;16.70;99.90;;;;;;5087213;28;20612;-90
2022/05/10 07:10:52;;;;;;;12.87;11.97;;;16.70;99.90;;;;;;5091299;28;20724;-88
2022/05/10 07:13:21;;;;;;;12.87;11.67;;;16.90;99.90;;;;;;5083882;28;20635;-88
2022/05/10 07:15:54;;;;;;;12.93;11.73;;;17.10;99.90;;;;;;5091596;28;20636;-88
2022/05/10 07:18:22;;;;;;;14.43;13.33;;;17.20;99.90;;;;;;5087140;28;21174;-89
2022/05/10 07:20:51;;;;;;;13.50;12.40;;;17.40;99.90;;;;;;5083635;28;20641;-90
2022/05/10 07:23:21;;;;;;;13.17;12.07;;;17.50;99.90;;;;;;5086268;28;20622;-88
2022/05/10 07:25:48;;;;;;;13.50;12.40;;;17.50;99.90;;;;;;5086114;28;20715;-88
2022/05/10 07:28:16;;;;;;;13.60;12.60;;;17.70;99.90;;;;;;5086337;28;20631;-89
2022/05/10 07:30:43;;;;;;;12.97;11.83;;;17.80;99.90;;;;;;5087025;28;20663;-90
2022/05/10 07:33:11;;;;;;;12.23;11.33;;;18.00;99.90;;;;;;5087782;28;20636;-90
2022/05/10 07:38:23;;;;;;;12.70;11.60;;;18.20;99.90;;;;;;5087415;28;20603;-90
2022/05/10 07:40:51;;;;;;;12.73;11.77;;;18.30;99.90;;;;;;5089498;28;21209;-90
2022/05/10 07:43:20;;;;;;;13.23;11.73;;;18.50;99.90;;;;;;5088099;28;20628;-91
2022/05/10 07:45:49;;;;;;;10.90;10.10;;;18.50;99.90;;;;;;5088312;28;20644;-90
2022/05/10 07:48:17;;;;;;;11.83;10.90;;;18.60;99.90;;;;;;5089448;28;20636;-90
2022/05/10 07:50:45;;;;;;;11.90;10.70;;;18.70;99.90;;;;;;5085837;28;20678;-90
2022/05/10 07:53:14;;;;;;;10.83;10.03;;;18.80;99.90;;;;;;5086531;28;20615;-90
2022/05/10 07:55:41;;;;;;;10.70;9.77;;;18.90;99.90;;;;;;5080243;28;20644;-90
2022/05/10 07:58:11;;;;;;;11.63;10.17;;;18.90;99.90;;;;;;5088336;28;20658;-91
2022/05/10 08:00:40;;;;;;;11.30;10.30;;;19.00;99.90;;;;;;5085625;28;20667;-90
2022/05/10 08:03:13;;;;;;;11.97;11.07;;;19.20;99.90;;;;;;5088489;28;20643;-90
2022/05/10 08:05:42;;;;;;;12.47;11.47;;;19.30;99.90;;;;;;5093757;28;20585;-89
2022/05/10 08:08:11;;;;;;;11.00;10.07;;;19.40;99.90;;;;;;5079088;28;20655;-91
2022/05/10 08:10:39;;;;;;;12.50;11.47;;;19.60;99.90;;;;;;5077784;28;20640;-90
2022/05/10 08:13:11;;;;;;;14.07;12.37;;;19.60;99.90;;;;;;5085224;28;20644;-90
2022/05/10 08:15:39;;;;;;;10.50;9.60;;;19.60;99.90;;;;;;5082275;28;20668;-90
2022/05/10 08:18:07;;;;;;;11.00;10.20;;;19.80;99.90;;;;;;5082458;28;20600;-90
2022/05/10 08:20:35;;;;;;;11.33;10.43;;;19.90;99.90;;;;;;5085813;28;20651;-90
2022/05/10 08:23:04;;;;;;;10.77;9.83;;;19.90;99.90;;;;;;5079657;28;20627;-89
2022/05/10 08:25:31;;;;;;;12.37;11.07;;;20.00;99.90;;;;;;5084952;28;20628;-89
2022/05/10 08:28:00;;;;;;;10.70;9.90;;;20.10;99.90;;;;;;5081875;28;20675;-89
2022/05/10 08:30:26;;;;;;;10.43;9.73;;;20.20;99.90;;;;;;5085566;28;20656;-89
2022/05/10 08:32:54;;;;;;;10.60;9.67;;;20.30;99.90;;;;;;5087522;28;20637;-89
2022/05/10 08:35:21;;;;;;;11.20;10.00;;;20.40;99.90;;;;;;5086713;28;20620;-90
2022/05/10 08:37:49;;;;;;;10.73;9.73;;;20.60;99.90;;;;;;5088309;28;20585;-90
2022/05/10 08:40:26;;;;;;;11.00;10.20;;;20.70;99.90;;;;;;5083873;28;21375;-89
2022/05/10 08:42:58;;;;;;;11.50;10.43;;;20.70;99.90;;;;;;5085656;28;20631;-90
2022/05/10 08:45:27;;;;;;;12.63;9.87;;;20.90;99.90;;;;;;5086891;28;20719;-90
2022/05/10 08:47:55;;;;;;;12.53;11.33;;;20.90;99.90;;;;;;5083574;28;20785;-90
2022/05/10 08:50:23;;;;;;;10.83;9.83;;;21.00;99.90;;;;;;5081899;28;20652;-90
2022/05/10 08:52:52;;;;;;;10.13;9.33;;;21.10;99.90;;;;;;5086013;28;20624;-90
2022/05/10 08:55:26;;;;;;;11.17;10.07;;;21.20;99.90;;;;;;5088915;28;20620;-89
2022/05/10 08:58:01;;;;;;;9.50;8.80;;;21.30;99.90;;;;;;5086590;28;20624;-89
2022/05/10 09:00:34;;;;;;;10.60;9.80;;;21.40;99.90;;;;;;5083021;28;20646;-89
2022/05/10 09:03:12;;;;;;;9.67;9.07;;;21.40;99.90;;;;;;5083677;28;20708;-88
2022/05/10 09:05:41;;;;;;;10.47;9.40;;;21.40;99.90;;;;;;5086074;28;20620;-87
2022/05/10 09:08:18;;;;;;;10.10;9.30;;;21.60;99.90;;;;;;5088206;28;20852;-88
2022/05/10 09:10:52;;;;;;;9.10;8.50;;;21.70;99.90;;;;;;5084661;28;20647;-88
2022/05/10 09:13:20;;;;;;;10.20;9.20;;;21.90;99.90;;;;;;5086432;28;20711;-88
2022/05/10 09:15:51;;;;;;;9.03;8.20;;;22.00;99.90;;;;;;5086573;28;20583;-88
2022/05/10 09:18:21;;;;;;;8.60;7.97;;;22.20;99.90;;;;;;5084758;28;20695;-88
2022/05/10 09:20:59;;;;;;;9.40;8.50;;;22.20;99.90;;;;;;5081906;28;20648;-88
2022/05/10 09:23:32;;;;;;;8.57;7.87;;;22.30;99.90;;;;;;5090138;28;20616;-89
2022/05/10 09:26:01;;;;;;;7.50;7.00;;;22.50;99.90;;;;;;5083041;28;20585;-88
2022/05/10 09:28:33;;;;;;;8.03;7.50;;;22.70;99.90;;;;;;5084762;28;21230;-89
2022/05/10 09:37:11;;;;;;;8.30;7.70;;;23.00;99.90;;;;;;5084597;28;20608;-88
2022/05/10 09:39:38;;;;;;;6.90;6.50;;;23.00;99.90;;;;;;5083045;28;20635;-87
2022/05/10 09:42:06;;;;;;;7.30;6.77;;;23.00;96.30;;;;;;5084978;28;20656;-87
2022/05/10 09:44:33;;;;;;;7.50;6.80;;;23.10;99.00;;;;;;5084781;28;20623;-87
2022/05/10 09:47:12;;;;;;;7.03;6.43;;;23.20;99.50;;;;;;5084312;28;20648;-88
2022/05/10 09:49:41;;;;;;;7.53;6.93;;;23.20;98.30;;;;;;5084468;28;20615;-88
2022/05/10 09:52:18;;;;;;;6.40;5.80;;;23.30;97.00;;;;;;5085471;28;20654;-88
2022/05/10 09:54:47;;;;;;;7.17;6.67;;;23.30;90.70;;;;;;5084786;28;20595;-87
2022/05/10 09:57:30;;;;;;;6.23;5.70;;;23.40;89.80;;;;;;5086428;28;21468;-88
2022/05/10 09:59:57;;;;;;;5.70;5.30;;;23.60;92.60;;;;;;5084636;28;20948;-88
2022/05/10 10:02:29;;;;;;;5.90;5.40;;;23.70;87.80;;;;;;5084055;28;20632;-88
2022/05/10 10:04:57;;;;;;;6.20;5.80;;;23.80;86.60;;;;;;5085948;28;21222;-87
2022/05/10 10:07:30;;;;;;;6.53;6.07;;;23.90;89.00;;;;;;5081162;28;21289;-90
2022/05/10 10:10:15;;;;;;;5.70;5.20;;;23.70;90.10;;;;;;5081135;28;20681;-89
2022/05/10 10:12:46;;;;;;;5.80;5.37;;;23.80;86.80;;;;;;5084557;28;21205;-89
2022/05/10 10:15:26;;;;;;;5.33;5.03;;;23.80;85.90;;;;;;5079818;28;20988;-90
2022/05/10 10:17:55;;;;;;;5.67;5.27;;;23.80;79.80;;;;;;5075747;28;20620;-89
2022/05/10 10:20:30;;;;;;;5.60;5.20;;;24.10;81.60;;;;;;5082385;28;20648;-90
2022/05/10 10:23:00;;;;;;;5.57;5.17;;;24.20;79.10;;;;;;5076455;28;20624;-90
2022/05/10 10:25:31;;;;;;;5.80;5.27;;;24.40;78.30;;;;;;5080982;28;20616;-89
2022/05/10 10:28:02;;;;;;;4.47;4.17;;;24.50;78.30;;;;;;5082193;28;21022;-89
2022/05/10 10:30:35;;;;;;;5.37;4.97;;;24.60;77.10;;;;;;5081451;28;20678;-88
2022/05/10 10:33:08;;;;;;;4.30;4.00;;;24.60;72.40;;;;;;5081124;28;20623;-90
2022/05/10 10:35:40;;;;;;;4.17;3.77;;;24.80;70.80;;;;;;5084123;28;20636;-90
2022/05/10 10:38:17;;;;;;;4.40;4.10;;;25.00;67.70;;;;;;5077291;28;20620;-90
2022/05/10 10:40:52;;;;;;;5.17;4.87;;;25.20;67.30;;;;;;5093643;28;20643;-90
2022/05/10 10:43:27;;;;;;;5.00;4.60;;;25.50;65.60;;;;;;5089771;28;20710;-89
2022/05/10 10:45:59;;;;;;;4.80;4.00;;;25.60;66.00;;;;;;5082214;28;20631;-89
2022/05/10 10:48:29;;;;;;;4.77;4.20;;;25.80;63.20;;;;;;5075558;28;20668;-90
2022/05/10 10:50:57;;;;;;;4.80;4.50;;;26.00;63.50;;;;;;5080426;28;20666;-90
2022/05/10 10:53:26;;;;;;;6.77;4.13;;;26.20;63.50;;;;;;5080762;28;20638;-90
2022/05/10 10:56:12;;;;;;;3.90;3.70;;;26.20;59.30;;;;;;5084311;28;20632;-90
2022/05/10 10:58:50;;;;;;;3.80;3.60;;;26.40;58.20;;;;;;5084854;28;20629;-90
2022/05/10 11:01:33;;;;;;;3.80;3.50;;;26.50;57.60;;;;;;5083968;28;20647;-89
2022/05/10 11:04:13;;;;;;;4.27;3.97;;;26.50;57.30;;;;;;5077152;28;21343;-88
2022/05/10 11:06:45;;;;;;;4.80;4.50;;;26.50;58.10;;;;;;5082033;28;20624;-89
2022/05/10 11:09:36;;;;;;;4.00;3.60;;;26.50;59.40;;;;;;5083412;28;20580;-89
2022/05/10 11:12:14;;;;;;;4.10;3.80;;;26.40;56.00;;;;;;5078904;28;20647;-88
2022/05/10 11:15:00;;;;;;;3.33;3.03;;;26.30;55.50;;;;;;5079862;28;20620;-88
2022/05/10 11:17:38;;;;;;;3.67;3.43;;;26.50;54.50;;;;;;5078877;28;20747;-89
2022/05/10 11:20:33;;;;;;;3.83;3.07;;;26.90;55.10;;;;;;5080635;28;20628;-89
2022/05/10 11:23:03;;;;;;;3.67;3.37;;;27.30;51.60;;;;;;5077707;28;20640;-89
2022/05/10 11:25:51;;;;;;;4.10;3.80;;;27.90;54.70;;;;;;5083508;28;21597;-90
2022/05/10 11:28:50;;;;;;;3.20;3.00;;;28.40;49.80;;;;;;5082113;28;20656;-89
2022/05/10 11:31:26;;;;;;;3.80;3.60;;;28.50;47.70;;;;;;5082072;28;20671;-90
2022/05/10 11:34:03;;;;;;;4.13;3.73;;;28.70;49.10;;;;;;5082950;28;20617;-89
2022/05/10 11:36:39;;;;;;;4.30;3.60;;;29.00;50.60;;;;;;5083791;28;20599;-89
2022/05/10 11:39:37;;;;;;;4.17;3.87;;;29.30;50.40;;;;;;5084621;28;20627;-89
2022/05/10 11:42:21;;;;;;;4.27;4.00;;;29.60;48.70;;;;;;5084890;28;20693;-89
2022/05/10 11:45:20;;;;;;;5.27;4.80;;;29.70;49.40;;;;;;5088335;28;20685;-89
2022/05/10 11:48:11;;;;;;;4.40;3.80;;;29.80;48.00;;;;;;5077173;28;20671;-88
2022/05/10 11:54:13;;;;;;;3.63;3.43;;;30.20;46.20;;;;;;5088325;28;20575;-89
2022/05/10 11:56:41;;;;;;;3.83;3.63;;;30.70;45.30;;;;;;5084554;28;20632;-90
2022/05/10 11:59:15;;;;;;;4.20;3.80;;;30.80;43.80;;;;;;5089365;28;20748;-89
2022/05/10 12:01:45;;;;;;;3.67;3.40;;;30.90;43.10;;;;;;5088516;28;20691;-89
2022/05/10 12:04:36;;;;;;;3.97;3.77;;;30.90;42.90;;;;;;5087476;28;20627;-89
2022/05/10 12:07:34;;;;;;;3.80;3.50;;;31.10;44.30;;;;;;5082070;28;20624;-89
2022/05/10 12:10:05;;;;;;;3.90;3.47;;;31.40;42.40;;;;;;5079643;28;20643;-89
2022/05/10 12:12:57;;;;;;;3.80;3.60;;;31.50;43.40;;;;;;5084664;28;20604;-88
2022/05/10 12:21:34;;;;;;;3.50;3.30;;;32.00;40.70;;;;;;5081158;28;21082;-89
2022/05/10 12:24:03;;;;;;;4.37;3.97;;;31.80;40.20;;;;;;5088060;28;20624;-89
2022/05/10 12:26:36;;;;;;;3.80;3.50;;;31.70;40.50;;;;;;5084410;28;20623;-89
2022/05/10 12:29:03;;;;;;;4.00;3.70;;;32.00;41.80;;;;;;5082190;28;20723;-90
2022/05/10 12:31:56;;;;;;;3.93;3.50;;;32.00;40.20;;;;;;5082022;28;20647;-90
2022/05/10 12:34:46;;;;;;;4.17;3.87;;;32.00;40.30;;;;;;5083376;28;20616;-90
2022/05/10 12:37:50;;;;;;;3.93;3.60;;;31.90;40.40;;;;;;5086776;28;20633;-89
2022/05/10 12:40:31;;;;;;;4.27;3.97;;;31.90;39.90;;;;;;5081900;28;20655;-89
2022/05/10 12:43:23;;;;;;;4.23;3.03;;;31.90;39.80;;;;;;5079667;28;20623;-88
2022/05/10 12:45:56;;;;;;;5.23;3.70;;;32.00;39.60;;;;;;5082509;28;20633;-88
2022/05/10 12:48:39;;;;;;;4.20;3.90;;;32.30;39.50;;;;;;5083087;28;20704;-89
2022/05/10 12:51:23;;;;;;;3.67;3.37;;;32.30;38.80;;;;;;5080646;28;20670;-89
2022/05/10 12:54:00;;;;;;;4.03;3.73;;;32.20;38.10;;;;;;5087771;28;20623;-89
2022/05/10 12:56:32;;;;;;;7.83;3.50;;;31.80;38.20;;;;;;5088050;28;20619;-89
2022/05/10 12:59:05;;;;;;;4.10;3.80;;;31.50;38.70;;;;;;5084710;28;20611;-89
2022/05/10 13:01:35;;;;;;;3.60;3.40;;;31.10;39.50;;;;;;5085689;28;20651;-89
2022/05/10 13:04:13;;;;;;;4.77;4.37;;;30.80;40.20;;;;;;5093346;28;20619;-89
2022/05/10 13:06:48;;;;;;;4.00;3.80;;;30.60;39.90;;;;;;5083396;28;21194;-89
2022/05/10 13:09:35;;;;;;;3.70;3.40;;;30.60;40.00;;;;;;5087817;28;20640;-87
2022/05/10 13:12:09;;;;;;;3.20;3.00;;;30.50;40.60;;;;;;5080166;28;20744;-89
2022/05/10 13:14:40;;;;;;;3.33;3.13;;;30.60;39.60;;;;;;5087637;28;20710;-88
2022/05/10 13:17:09;;;;;;;3.73;3.53;;;30.40;39.30;;;;;;5082945;28;20946;-89
2022/05/10 13:19:41;;;;;;;3.57;3.37;;;30.50;41.30;;;;;;5082442;28;21179;-88
2022/05/10 13:22:14;;;;;;;4.13;3.83;;;30.30;40.20;;;;;;5087112;28;20637;-89